createdAt,value
2022-09-28T00:01:25.570Z,98798.78
2022-09-28T00:03:55.644Z,98792.72
2022-09-28T00:06:24.517Z,98801.06
2022-09-28T00:08:51.675Z,98804.72
2022-09-28T00:11:20.640Z,98811.88
2022-09-28T00:13:52.651Z,98805.63
2022-09-28T00:16:23.779Z,98801.25
2022-09-28T00:18:51.191Z,98799.06
2022-09-28T00:21:23.107Z,98801.72
2022-09-28T00:24:13.301Z,98799.09
2022-09-28T00:26:44.481Z,98800.50
2022-09-28T00:29:31.631Z,98799.44
2022-09-28T00:32:11.545Z,98788.88
2022-09-28T00:34:42.284Z,98782.47
2022-09-28T00:37:09.886Z,98786.03
2022-09-28T00:39:38.192Z,98779.66
2022-09-28T00:42:11.787Z,98781.13
2022-09-28T00:44:46.339Z,98773.06
2022-09-28T00:47:28.356Z,98778.81
2022-09-28T00:50:32.898Z,98779.41
2022-09-28T00:53:06.370Z,98774.28
2022-09-28T00:55:40.386Z,98779.41
2022-09-28T00:58:11.615Z,98775.09
2022-09-28T01:00:40.887Z,98779.56
2022-09-28T01:03:09.235Z,98779.09
2022-09-28T01:05:38.271Z,98781.59
2022-09-28T01:08:07.221Z,98776.94
2022-09-28T01:10:34.607Z,98771.47
2022-09-28T01:13:01.448Z,98769.78
2022-09-28T01:15:29.572Z,98767.84
2022-09-28T01:18:19.531Z,98762.00
2022-09-28T01:21:02.344Z,98757.94
2022-09-28T01:23:57.180Z,98762.63
2022-09-28T01:26:42.980Z,98761.91
2022-09-28T01:29:21.518Z,98764.34
2022-09-28T01:32:11.034Z,98765.53
2022-09-28T01:34:43.532Z,98764.28
2022-09-28T01:37:14.503Z,98759.88
2022-09-28T01:39:46.962Z,98760.63
2022-09-28T01:42:20.696Z,98752.56
2022-09-28T01:44:51.281Z,98753.91
2022-09-28T01:47:21.473Z,98756.59
2022-09-28T01:50:07.161Z,98758.25
2022-09-28T01:52:42.019Z,98753.56
2022-09-28T01:55:47.481Z,98756.66
2022-09-28T01:58:26.684Z,98742.09
2022-09-28T02:01:00.073Z,98749.16
2022-09-28T02:03:35.235Z,98742.34
2022-09-28T02:06:16.412Z,98745.03
2022-09-28T02:08:51.572Z,98749.16
2022-09-28T02:11:19.386Z,98746.88
2022-09-28T02:13:55.000Z,98748.97
2022-09-28T02:16:31.422Z,98746.53
2022-09-28T02:18:58.415Z,98748.31
2022-09-28T02:21:38.167Z,98755.09
2022-09-28T02:24:21.275Z,98754.09
2022-09-28T02:26:50.669Z,98747.84
2022-09-28T02:29:18.052Z,98754.47
2022-09-28T02:31:44.871Z,98754.38
2022-09-28T02:34:11.736Z,98759.66
2022-09-28T02:36:38.906Z,98757.84
2022-09-28T02:39:06.580Z,98755.09
2022-09-28T02:41:43.509Z,98755.09
2022-09-28T02:44:15.384Z,98755.88
2022-09-28T02:46:45.694Z,98768.69
2022-09-28T02:49:49.959Z,98755.59
2022-09-28T02:52:47.533Z,98754.59
2022-09-28T02:55:27.251Z,98758.34
2022-09-28T02:58:12.370Z,98757.13
2022-09-28T03:01:03.113Z,98751.94
2022-09-28T03:04:01.092Z,98758.13
2022-09-28T03:06:39.262Z,98763.75
2022-09-28T03:09:15.397Z,98756.28
2022-09-28T03:11:54.855Z,98757.13
2022-09-28T03:14:22.053Z,98757.50
2022-09-28T03:16:52.731Z,98757.03
2022-09-28T03:19:23.806Z,98746.34
2022-09-28T03:21:51.460Z,98750.66
2022-09-28T03:24:17.997Z,98753.03
2022-09-28T03:26:44.620Z,98752.56
2022-09-28T03:29:12.420Z,98756.88
2022-09-28T03:31:39.235Z,98759.03
2022-09-28T03:34:06.087Z,98749.84
2022-09-28T03:36:32.680Z,98759.31
2022-09-28T03:38:59.552Z,98752.56
2022-09-28T03:41:29.591Z,98750.78
2022-09-28T03:43:56.248Z,98754.75
2022-09-28T03:46:25.153Z,98749.00
2022-09-28T03:48:58.260Z,98757.75
2022-09-28T03:51:25.477Z,98757.28
2022-09-28T03:53:53.435Z,98755.03
2022-09-28T03:56:20.696Z,98759.22
2022-09-28T03:58:47.387Z,98757.19
2022-09-28T04:01:18.644Z,98753.13
2022-09-28T04:03:47.381Z,98755.97
2022-09-28T04:06:14.889Z,98758.69
2022-09-28T04:08:42.938Z,98751.75
2022-09-28T04:11:09.499Z,98753.66
2022-09-28T04:13:36.996Z,98756.66
2022-09-28T04:16:04.904Z,98760.69
2022-09-28T04:18:33.728Z,98757.25
2022-09-28T04:21:12.546Z,98756.88
2022-09-28T04:23:42.861Z,98766.19
2022-09-28T04:26:18.866Z,98760.03
2022-09-28T04:29:06.723Z,98766.34
2022-09-28T04:31:43.182Z,98756.75
2022-09-28T04:34:10.681Z,98759.78
2022-09-28T04:36:37.225Z,98754.75
2022-09-28T04:39:04.029Z,98752.47
2022-09-28T04:41:31.785Z,98765.91
2022-09-28T04:43:58.347Z,98756.97
2022-09-28T04:46:26.142Z,98756.78
2022-09-28T04:49:06.832Z,98760.25
2022-09-28T04:52:04.627Z,98758.81
2022-09-28T04:54:31.257Z,98756.41
2022-09-28T04:56:58.508Z,98760.22
2022-09-28T04:59:25.810Z,98753.19
2022-09-28T05:01:53.961Z,98751.66
2022-09-28T05:04:39.438Z,98758.53
2022-09-28T05:07:17.037Z,98754.84
2022-09-28T05:09:43.697Z,98747.34
2022-09-28T05:12:10.184Z,98751.06
2022-09-28T05:14:37.315Z,98749.81
2022-09-28T05:17:04.587Z,98750.59
2022-09-28T05:19:38.295Z,98755.38
2022-09-28T05:22:06.064Z,98761.16
2022-09-28T05:24:37.942Z,98756.50
2022-09-28T05:27:05.032Z,98758.53
2022-09-28T05:29:32.572Z,98753.16
2022-09-28T05:32:18.070Z,98753.19
2022-09-28T05:34:56.234Z,98760.63
2022-09-28T05:37:26.940Z,98749.00
2022-09-28T05:39:53.573Z,98751.19
2022-09-28T05:42:20.703Z,98743.44
2022-09-28T05:44:47.252Z,98747.81
2022-09-28T05:47:13.806Z,98753.69
2022-09-28T05:49:40.670Z,98751.28
2022-09-28T05:52:07.264Z,98745.81
2022-09-28T05:54:37.312Z,98750.50
2022-09-28T05:57:05.709Z,98746.06
2022-09-28T05:59:32.378Z,98755.63
2022-09-28T06:01:59.686Z,98756.34
2022-09-28T06:04:26.783Z,98748.81
2022-09-28T06:06:53.330Z,98751.53
2022-09-28T06:09:25.913Z,98757.28
2022-09-28T06:11:59.141Z,98760.50
2022-09-28T06:14:34.860Z,98753.47
2022-09-28T06:17:01.532Z,98755.59
2022-09-28T06:19:28.578Z,98758.94
2022-09-28T06:22:03.865Z,98766.09
2022-09-28T06:24:33.159Z,98759.75
2022-09-28T06:27:00.095Z,98763.56
2022-09-28T06:29:27.523Z,98768.53
2022-09-28T06:31:55.422Z,98773.66
2022-09-28T06:34:22.958Z,98783.47
2022-09-28T06:36:49.656Z,98784.75
2022-09-28T06:39:16.607Z,98781.56
2022-09-28T06:41:43.249Z,98786.31
2022-09-28T06:44:15.667Z,98788.59
2022-09-28T06:47:01.203Z,98790.72
2022-09-28T06:49:48.271Z,98791.56
2022-09-28T06:52:26.973Z,98787.72
2022-09-28T06:55:22.076Z,98797.50
2022-09-28T06:57:59.155Z,98795.38
2022-09-28T07:00:27.562Z,98787.75
2022-09-28T07:02:54.834Z,98797.94
2022-09-28T07:05:41.707Z,98801.50
2022-09-28T07:08:37.580Z,98792.63
2022-09-28T07:11:28.960Z,98801.06
2022-09-28T07:14:25.271Z,98808.03
2022-09-28T07:17:12.282Z,98806.53
2022-09-28T07:19:40.098Z,98809.13
2022-09-28T07:22:06.662Z,98820.75
2022-09-28T07:24:33.402Z,98807.88
2022-09-28T07:27:18.263Z,98821.63
2022-09-28T07:29:58.846Z,98821.50
2022-09-28T07:32:48.397Z,98821.25
2022-09-28T07:35:22.449Z,98827.06
2022-09-28T07:38:03.492Z,98824.94
2022-09-28T07:40:51.004Z,98826.84
2022-09-28T07:43:21.225Z,98839.41
2022-09-28T07:45:52.729Z,98837.72
2022-09-28T07:48:20.170Z,98839.63
2022-09-28T07:51:01.750Z,98839.41
2022-09-28T07:53:39.994Z,98843.50
2022-09-28T07:56:34.783Z,98847.91
2022-09-28T07:59:25.285Z,98841.06
2022-09-28T08:02:35.051Z,98850.75
2022-09-28T08:05:02.483Z,98856.47
2022-09-28T08:07:29.045Z,98846.06
2022-09-28T08:10:02.503Z,98854.69
2022-09-28T08:12:28.964Z,98849.19
2022-09-28T08:15:22.233Z,98860.41
2022-09-28T08:17:59.100Z,98857.66
2022-09-28T08:20:51.352Z,98850.72
2022-09-28T08:23:18.600Z,98861.94
2022-09-28T08:25:49.020Z,98863.59
2022-09-28T08:28:19.483Z,98869.66
2022-09-28T08:30:47.963Z,98870.44
2022-09-28T08:33:26.427Z,98877.13
2022-09-28T08:36:11.596Z,98881.69
2022-09-28T08:39:01.076Z,98877.97
2022-09-28T08:41:48.678Z,98880.63
2022-09-28T08:44:59.523Z,98890.69
2022-09-28T08:48:22.163Z,98883.75
2022-09-28T08:51:18.941Z,98882.53
2022-09-28T08:54:28.791Z,98887.09
2022-09-28T08:57:13.866Z,98886.50
2022-09-28T08:59:46.567Z,98895.97
2022-09-28T09:02:25.387Z,98892.72
2022-09-28T09:04:54.564Z,98907.31
2022-09-28T09:07:48.876Z,98907.44
2022-09-28T09:10:58.438Z,98914.97
2022-09-28T09:13:35.046Z,98920.72
2022-09-28T09:16:08.148Z,98919.22
2022-09-28T09:19:12.534Z,98921.84
2022-09-28T09:22:15.575Z,98913.81
2022-09-28T09:24:48.877Z,98912.84
2022-09-28T09:27:36.725Z,98916.19
2022-09-28T09:30:12.777Z,98919.53
2022-09-28T09:32:57.815Z,98924.19
2022-09-28T09:35:43.368Z,98924.00
2022-09-28T09:38:59.685Z,98928.66
2022-09-28T09:41:56.809Z,98932.81
2022-09-28T09:45:13.904Z,98926.97
2022-09-28T09:47:54.204Z,98926.22
2022-09-28T09:50:30.593Z,98932.13
2022-09-28T09:53:27.015Z,98928.94
2022-09-28T09:55:58.387Z,98930.22
2022-09-28T09:58:47.875Z,98927.84
2022-09-28T10:01:41.577Z,98927.13
2022-09-28T10:04:37.435Z,98933.03
2022-09-28T10:07:20.576Z,98937.25
2022-09-28T10:09:50.656Z,98925.69
2022-09-28T10:12:37.033Z,98927.06
2022-09-28T10:15:07.535Z,98918.03
2022-09-28T10:17:45.723Z,98923.56
2022-09-28T10:20:35.706Z,98925.31
2022-09-28T10:23:37.744Z,98915.38
2022-09-28T10:26:13.371Z,98924.63
2022-09-28T10:28:51.040Z,98921.63
2022-09-28T10:31:38.270Z,98927.84
2022-09-28T10:34:14.711Z,98917.28
2022-09-28T10:36:47.246Z,98927.28
2022-09-28T10:39:25.530Z,98935.69
2022-09-28T10:41:52.392Z,98923.66
2022-09-28T10:44:22.752Z,98928.31
2022-09-28T10:47:03.064Z,98929.09
2022-09-28T10:49:47.213Z,98933.53
2022-09-28T10:52:33.775Z,98940.13
2022-09-28T10:55:01.190Z,98941.94
2022-09-28T10:57:37.093Z,98935.75
2022-09-28T11:00:34.805Z,98927.44
2022-09-28T11:03:33.852Z,98938.94
2022-09-28T11:06:08.685Z,98936.38
2022-09-28T11:08:40.300Z,98928.34
2022-09-28T11:11:13.487Z,98929.78
2022-09-28T11:13:53.179Z,98937.84
2022-09-28T11:16:32.488Z,98926.31
2022-09-28T11:19:32.138Z,98929.75
2022-09-28T11:21:58.749Z,98925.25
2022-09-28T11:24:33.922Z,98934.09
2022-09-28T11:27:03.909Z,98927.19
2022-09-28T11:29:46.889Z,98926.91
2022-09-28T11:32:41.701Z,98931.53
2022-09-28T11:35:24.683Z,98934.69
2022-09-28T11:38:03.295Z,98936.09
2022-09-28T11:41:37.299Z,98933.75
2022-09-28T11:44:37.333Z,98942.03
2022-09-28T11:47:29.750Z,98937.53
2022-09-28T11:50:24.408Z,98935.19
2022-09-28T11:53:14.938Z,98942.38
2022-09-28T11:55:50.332Z,98939.94
2022-09-28T11:58:23.642Z,98938.03
2022-09-28T12:01:02.467Z,98940.06
2022-09-28T12:03:50.064Z,98939.13
2022-09-28T12:06:22.126Z,98936.78
2022-09-28T12:08:56.228Z,98936.94
2022-09-28T12:11:55.717Z,98937.03
2022-09-28T12:14:40.070Z,98938.44
2022-09-28T12:17:20.091Z,98933.16
2022-09-28T12:20:01.407Z,98940.03
2022-09-28T12:22:42.873Z,98938.63
2022-09-28T12:25:21.045Z,98929.91
2022-09-28T12:28:00.059Z,98921.44
2022-09-28T12:30:32.316Z,98929.34
2022-09-28T12:33:04.326Z,98920.97
2022-09-28T12:35:58.779Z,98926.50
2022-09-28T12:38:46.003Z,98917.88
2022-09-28T12:41:41.981Z,98926.25
2022-09-28T12:44:21.935Z,98927.66
2022-09-28T12:47:09.506Z,98928.34
2022-09-28T12:52:50.522Z,98924.47
2022-09-28T12:55:43.937Z,98929.88
2022-09-28T12:58:30.245Z,98923.16
2022-09-28T13:01:08.950Z,98923.06
2022-09-28T13:04:12.833Z,98925.69
2022-09-28T13:06:49.838Z,98929.03
2022-09-28T13:09:25.498Z,98927.53
2022-09-28T13:12:04.218Z,98927.59
2022-09-28T13:14:53.735Z,98934.53
2022-09-28T13:17:41.308Z,98928.19
2022-09-28T13:20:21.016Z,98928.88
2022-09-28T13:23:11.498Z,98925.28
2022-09-28T13:25:44.334Z,98918.94
2022-09-28T13:28:15.472Z,98920.16
2022-09-28T13:30:45.093Z,98928.81
2022-09-28T13:33:25.757Z,98923.34
2022-09-28T13:35:52.403Z,98924.22
2022-09-28T13:38:18.983Z,98919.22
2022-09-28T13:41:03.869Z,98910.69
2022-09-28T13:43:53.444Z,98919.84
2022-09-28T13:46:22.999Z,98912.03
2022-09-28T13:49:12.379Z,98916.06
2022-09-28T13:52:02.784Z,98919.50
2022-09-28T13:54:41.395Z,98913.19
2022-09-28T13:57:25.625Z,98907.69
2022-09-28T14:00:10.583Z,98905.09
2022-09-28T14:02:51.828Z,98917.44
2022-09-28T14:05:21.196Z,98907.94
2022-09-28T14:08:31.794Z,98909.16
2022-09-28T14:11:27.064Z,98914.09
2022-09-28T14:14:05.882Z,98916.19
2022-09-28T14:16:34.479Z,98914.53
2022-09-28T14:19:07.138Z,98915.88
2022-09-28T14:22:07.866Z,98920.25
2022-09-28T14:24:38.416Z,98926.03
2022-09-28T14:27:17.095Z,98918.31
2022-09-28T14:29:44.262Z,98921.78
2022-09-28T14:32:10.826Z,98923.25
2022-09-28T14:35:38.791Z,98934.13
2022-09-28T14:38:49.219Z,98932.56
2022-09-28T14:41:34.497Z,98930.59
2022-09-28T14:44:02.750Z,98924.13
2022-09-28T14:46:35.557Z,98926.22
2022-09-28T14:49:05.430Z,98925.91
2022-09-28T14:51:33.806Z,98925.84
2022-09-28T14:54:17.893Z,98925.81
2022-09-28T14:56:53.421Z,98929.44
2022-09-28T14:59:36.156Z,98925.59
2022-09-28T15:02:11.608Z,98933.81
2022-09-28T15:04:50.248Z,98929.63
2022-09-28T15:07:29.623Z,98929.13
2022-09-28T15:09:57.682Z,98937.28
2022-09-28T15:12:27.491Z,98931.22
2022-09-28T15:15:04.020Z,98936.75
2022-09-28T15:17:40.220Z,98939.56
2022-09-28T15:20:29.836Z,98932.00
2022-09-28T15:22:58.550Z,98954.69
2022-09-28T15:25:28.132Z,98946.00
2022-09-28T15:28:06.453Z,98945.88
2022-09-28T15:30:35.013Z,98938.56
2022-09-28T15:33:22.149Z,98940.75
2022-09-28T15:36:02.367Z,98937.59
2022-09-28T15:38:33.996Z,98943.06
2022-09-28T15:41:04.875Z,98953.94
2022-09-28T15:43:34.033Z,98952.97
2022-09-28T15:46:15.164Z,98949.25
2022-09-28T15:48:55.196Z,98949.81
2022-09-28T15:51:23.683Z,98956.63
2022-09-28T15:54:02.848Z,98953.56
2022-09-28T15:56:30.208Z,98966.41
2022-09-28T15:59:15.097Z,98968.09
2022-09-28T16:01:45.424Z,98973.81
2022-09-28T16:04:53.991Z,98963.28
2022-09-28T16:07:30.710Z,98965.09
2022-09-28T16:10:00.386Z,98963.78
2022-09-28T16:12:40.383Z,98985.06
2022-09-28T16:15:10.862Z,98984.44
2022-09-28T16:17:37.986Z,98984.38
2022-09-28T16:20:20.916Z,98988.22
2022-09-28T16:22:48.103Z,98988.91
2022-09-28T16:25:20.410Z,99000.63
2022-09-28T16:27:47.105Z,98991.72
2022-09-28T16:30:24.738Z,98996.09
2022-09-28T16:32:57.734Z,98994.72
2022-09-28T16:35:28.381Z,98993.53
2022-09-28T16:38:14.738Z,98999.66
2022-09-28T16:40:44.146Z,98994.97
2022-09-28T16:43:26.685Z,98998.50
2022-09-28T16:46:05.008Z,99005.97
2022-09-28T16:48:34.332Z,99005.63
2022-09-28T16:51:00.812Z,99014.00
2022-09-28T16:53:45.988Z,99014.41
2022-09-28T16:56:13.338Z,99021.50
2022-09-28T16:58:39.909Z,99020.59
2022-09-28T17:01:09.507Z,99025.78
2022-09-28T17:03:36.346Z,99031.47
2022-09-28T17:06:05.960Z,99028.13
2022-09-28T17:08:33.759Z,99031.16
2022-09-28T17:11:24.105Z,99036.72
2022-09-28T17:13:50.553Z,99038.50
2022-09-28T17:16:37.072Z,99039.94
2022-09-28T17:19:23.934Z,99039.22
2022-09-28T17:21:52.036Z,99045.81
2022-09-28T17:24:19.388Z,99046.25
2022-09-28T17:26:47.478Z,99046.06
2022-09-28T17:29:15.290Z,99047.69
2022-09-28T17:31:44.255Z,99041.53
2022-09-28T17:34:12.138Z,99044.38
2022-09-28T17:36:41.727Z,99042.28
2022-09-28T17:39:16.890Z,99037.94
2022-09-28T17:41:43.515Z,99047.41
2022-09-28T17:44:10.388Z,99051.31
2022-09-28T17:46:39.464Z,99053.41
2022-09-28T17:49:10.083Z,99052.56
2022-09-28T17:51:37.838Z,99065.44
2022-09-28T17:54:05.954Z,99064.59
2022-09-28T17:56:33.003Z,99055.47
2022-09-28T17:59:03.111Z,99064.56
2022-09-28T18:01:33.847Z,99057.25
2022-09-28T18:04:01.968Z,99069.78
2022-09-28T18:06:28.922Z,99068.41
2022-09-28T18:08:55.565Z,99064.56
2022-09-28T18:11:22.403Z,99069.81
2022-09-28T18:13:48.944Z,99067.41
2022-09-28T18:16:15.795Z,99058.09
2022-09-28T18:18:42.389Z,99075.41
2022-09-28T18:21:09.290Z,99076.50
2022-09-28T18:23:39.279Z,99074.13
2022-09-28T18:26:13.811Z,99066.69
2022-09-28T18:28:41.140Z,99072.94
2022-09-28T18:31:09.841Z,99072.09
2022-09-28T18:33:36.831Z,99070.44
2022-09-28T18:36:05.488Z,99071.75
2022-09-28T18:38:35.014Z,99072.84
2022-09-28T18:41:08.871Z,99072.88
2022-09-28T18:43:36.569Z,99074.63
2022-09-28T18:46:08.106Z,99073.28
2022-09-28T18:48:35.978Z,99071.47
2022-09-28T18:51:03.775Z,99071.13
2022-09-28T18:53:33.195Z,99072.13
2022-09-28T18:56:05.526Z,99073.03
2022-09-28T18:58:34.496Z,99076.09
2022-09-28T19:01:28.476Z,99071.84
2022-09-28T19:03:53.951Z,99071.28
2022-09-28T19:06:21.345Z,99080.22
2022-09-28T19:08:52.411Z,99081.59
2022-09-28T19:11:18.937Z,99082.00
2022-09-28T19:13:45.399Z,99077.38
2022-09-28T19:16:17.987Z,99086.31
2022-09-28T19:18:44.934Z,99078.22
2022-09-28T19:21:14.068Z,99087.59
2022-09-28T19:23:44.763Z,99079.84
2022-09-28T19:26:20.940Z,99090.91
2022-09-28T19:28:48.016Z,99097.03
2022-09-28T19:31:14.964Z,99099.75
2022-09-28T19:33:41.690Z,99106.31
2022-09-28T19:36:10.307Z,99112.06
2022-09-28T19:38:38.344Z,99109.63
2022-09-28T19:41:10.277Z,99112.63
2022-09-28T19:43:36.896Z,99108.28
2022-09-28T19:46:05.778Z,99112.28
2022-09-28T19:48:34.023Z,99118.75
2022-09-28T19:51:05.857Z,99118.06
2022-09-28T19:53:37.337Z,99120.94
2022-09-28T19:56:05.436Z,99118.63
2022-09-28T19:58:35.632Z,99118.63
2022-09-28T20:01:06.737Z,99128.13
2022-09-28T20:03:34.390Z,99124.47
2022-09-28T20:06:01.849Z,99133.63
2022-09-28T20:08:30.063Z,99132.06
2022-09-28T20:10:59.537Z,99145.47
2022-09-28T20:13:31.772Z,99142.25
2022-09-28T20:16:06.503Z,99148.25
2022-09-28T20:18:35.129Z,99139.97
2022-09-28T20:21:07.138Z,99134.03
2022-09-28T20:23:36.060Z,99134.84
2022-09-28T20:26:04.693Z,99133.88
2022-09-28T20:28:32.408Z,99139.53
2022-09-28T20:31:07.509Z,99140.88
2022-09-28T20:33:35.889Z,99138.91
2022-09-28T20:36:14.585Z,99146.72
2022-09-28T20:38:42.104Z,99141.81
2022-09-28T20:41:13.175Z,99150.19
2022-09-28T20:43:40.667Z,99141.41
2022-09-28T20:46:10.268Z,99147.19
2022-09-28T20:48:37.773Z,99139.41
2022-09-28T20:51:12.056Z,99146.88
2022-09-28T20:53:40.142Z,99143.84
2022-09-28T20:56:08.093Z,99155.72
2022-09-28T20:58:34.593Z,99150.69
2022-09-28T21:01:16.095Z,99155.00
2022-09-28T21:04:02.848Z,99145.41
2022-09-28T21:06:34.772Z,99155.72
2022-09-28T21:09:02.104Z,99149.94
2022-09-28T21:11:29.951Z,99160.13
2022-09-28T21:14:01.517Z,99162.41
2022-09-28T21:16:30.357Z,99163.00
2022-09-28T21:18:57.550Z,99160.50
2022-09-28T21:21:25.066Z,99166.00
2022-09-28T21:23:56.089Z,99169.72
2022-09-28T21:26:31.091Z,99157.75
2022-09-28T21:29:02.856Z,99160.25
2022-09-28T21:31:39.084Z,99160.72
2022-09-28T21:34:06.319Z,99162.16
2022-09-28T21:36:32.881Z,99164.66
2022-09-28T21:38:59.533Z,99172.81
2022-09-28T21:41:26.088Z,99165.03
2022-09-28T21:43:52.956Z,99162.38
2022-09-28T21:46:19.599Z,99169.91
2022-09-28T21:48:46.297Z,99165.25
2022-09-28T21:51:14.459Z,99167.63
2022-09-28T21:53:41.091Z,99164.97
2022-09-28T21:56:10.877Z,99170.03
2022-09-28T21:58:37.935Z,99168.91
2022-09-28T22:01:09.157Z,99169.28
2022-09-28T22:03:36.844Z,99166.22
2022-09-28T22:06:05.042Z,99170.59
2022-09-28T22:08:32.591Z,99171.91
2022-09-28T22:11:08.714Z,99171.19
2022-09-28T22:13:39.107Z,99176.81
2022-09-28T22:16:05.906Z,99183.88
2022-09-28T22:18:33.939Z,99178.81
2022-09-28T22:21:17.506Z,99172.50
2022-09-28T22:23:44.713Z,99173.53
2022-09-28T22:26:20.005Z,99175.59
2022-09-28T22:28:49.413Z,99176.88
2022-09-28T22:31:18.144Z,99177.41
2022-09-28T22:33:44.913Z,99178.56
2022-09-28T22:36:11.917Z,99181.66
2022-09-28T22:38:39.064Z,99180.94
2022-09-28T22:41:05.633Z,99176.91
2022-09-28T22:43:32.704Z,99181.88
2022-09-28T22:46:10.847Z,99181.25
2022-09-28T22:48:38.401Z,99175.66
2022-09-28T22:51:06.549Z,99180.06
2022-09-28T22:53:34.230Z,99183.00
2022-09-28T22:56:05.505Z,99188.50
2022-09-28T22:58:33.879Z,99174.56
2022-09-28T23:01:11.783Z,99193.00
2022-09-28T23:03:40.338Z,99184.75
2022-09-28T23:06:07.979Z,99184.06
2022-09-28T23:08:35.415Z,99184.44
2022-09-28T23:11:02.406Z,99187.91
2022-09-28T23:13:30.961Z,99186.72
2022-09-28T23:15:59.587Z,99181.63
2022-09-28T23:18:29.141Z,99184.38
2022-09-28T23:20:57.339Z,99189.69
2022-09-28T23:23:24.235Z,99178.72
2022-09-28T23:25:52.030Z,99182.34
2022-09-28T23:28:20.095Z,99184.09
2022-09-28T23:30:47.268Z,99183.50
2022-09-28T23:33:18.134Z,99183.72
2022-09-28T23:35:45.488Z,99183.72
2022-09-28T23:38:17.792Z,99187.66
2022-09-28T23:40:48.169Z,99179.78
2022-09-28T23:43:15.214Z,99178.41
2022-09-28T23:45:44.758Z,99177.75
2022-09-28T23:48:15.032Z,99175.53
2022-09-28T23:50:43.365Z,99173.41
2022-09-28T23:53:11.823Z,99175.03
2022-09-28T23:55:38.362Z,99174.63
2022-09-28T23:58:04.862Z,99177.97
